sensor_id;sensor_type;location;lat;lon;timestamp;P1;durP1;ratioP1;P2;durP2;ratioP2
8474;SDS011;4274;52.012;8.448;2022-10-26T00:03:53;55.73;;;3.77;;
8474;SDS011;4274;52.012;8.448;2022-10-26T00:06:20;48.87;;;3.67;;
8474;SDS011;4274;52.012;8.448;2022-10-26T00:08:49;46.03;;;3.20;;
8474;SDS011;4274;52.012;8.448;2022-10-26T00:11:15;48.10;;;3.07;;
8474;SDS011;4274;52.012;8.448;2022-10-26T00:13:42;48.53;;;3.30;;
8474;SDS011;4274;52.012;8.448;2022-10-26T00:16:15;45.53;;;3.23;;
8474;SDS011;4274;52.012;8.448;2022-10-26T00:18:43;54.13;;;3.73;;
8474;SDS011;4274;52.012;8.448;2022-10-26T00:21:09;55.57;;;3.60;;
8474;SDS011;4274;52.012;8.448;2022-10-26T00:23:35;44.60;;;2.90;;
8474;SDS011;4274;52.012;8.448;2022-10-26T00:26:01;46.33;;;3.57;;
8474;SDS011;4274;52.012;8.448;2022-10-26T00:28:27;43.30;;;3.07;;
8474;SDS011;4274;52.012;8.448;2022-10-26T00:30:53;45.77;;;3.07;;
8474;SDS011;4274;52.012;8.448;2022-10-26T00:33:19;46.87;;;3.20;;
8474;SDS011;4274;52.012;8.448;2022-10-26T00:35:54;47.67;;;3.20;;
8474;SDS011;4274;52.012;8.448;2022-10-26T00:38:20;48.43;;;3.27;;
8474;SDS011;4274;52.012;8.448;2022-10-26T00:40:46;51.03;;;3.30;;
8474;SDS011;4274;52.012;8.448;2022-10-26T00:43:13;45.30;;;3.00;;
8474;SDS011;4274;52.012;8.448;2022-10-26T00:45:59;45.67;;;4.07;;
8474;SDS011;4274;52.012;8.448;2022-10-26T00:48:31;43.80;;;3.10;;
8474;SDS011;4274;52.012;8.448;2022-10-26T00:51:08;48.00;;;4.70;;
8474;SDS011;4274;52.012;8.448;2022-10-26T00:53:38;46.40;;;3.20;;
8474;SDS011;4274;52.012;8.448;2022-10-26T00:56:04;43.60;;;3.10;;
8474;SDS011;4274;52.012;8.448;2022-10-26T00:58:30;43.07;;;3.00;;
8474;SDS011;4274;52.012;8.448;2022-10-26T01:00:56;43.73;;;3.27;;
8474;SDS011;4274;52.012;8.448;2022-10-26T01:03:22;46.00;;;3.10;;
8474;SDS011;4274;52.012;8.448;2022-10-26T01:05:52;44.10;;;3.00;;
8474;SDS011;4274;52.012;8.448;2022-10-26T01:08:20;47.73;;;4.60;;
8474;SDS011;4274;52.012;8.448;2022-10-26T01:10:46;45.90;;;3.67;;
8474;SDS011;4274;52.012;8.448;2022-10-26T01:13:12;47.70;;;3.20;;
8474;SDS011;4274;52.012;8.448;2022-10-26T01:16:01;45.70;;;3.00;;
8474;SDS011;4274;52.012;8.448;2022-10-26T01:32:26;45.57;;;2.90;;
8474;SDS011;4274;52.012;8.448;2022-10-26T01:35:04;48.00;;;3.07;;
8474;SDS011;4274;52.012;8.448;2022-10-26T01:40:37;46.63;;;3.67;;
8474;SDS011;4274;52.012;8.448;2022-10-26T01:43:07;50.03;;;2.80;;
8474;SDS011;4274;52.012;8.448;2022-10-26T01:45:36;42.80;;;3.37;;
8474;SDS011;4274;52.012;8.448;2022-10-26T01:48:06;47.47;;;2.97;;
8474;SDS011;4274;52.012;8.448;2022-10-26T01:50:35;48.23;;;4.83;;
8474;SDS011;4274;52.012;8.448;2022-10-26T01:53:02;45.23;;;3.13;;
8474;SDS011;4274;52.012;8.448;2022-10-26T01:55:47;44.40;;;3.00;;
8474;SDS011;4274;52.012;8.448;2022-10-26T02:01:28;44.00;;;2.83;;
8474;SDS011;4274;52.012;8.448;2022-10-26T02:09:19;47.83;;;3.10;;
8474;SDS011;4274;52.012;8.448;2022-10-26T02:11:53;49.63;;;2.97;;
8474;SDS011;4274;52.012;8.448;2022-10-26T02:15:07;46.17;;;3.20;;
8474;SDS011;4274;52.012;8.448;2022-10-26T02:17:28;42.47;;;2.67;;
8474;SDS011;4274;52.012;8.448;2022-10-26T02:20:03;47.07;;;3.50;;
8474;SDS011;4274;52.012;8.448;2022-10-26T02:22:35;46.73;;;2.80;;
8474;SDS011;4274;52.012;8.448;2022-10-26T02:25:05;46.57;;;2.90;;
8474;SDS011;4274;52.012;8.448;2022-10-26T02:27:36;46.83;;;3.20;;
8474;SDS011;4274;52.012;8.448;2022-10-26T02:30:06;47.23;;;3.30;;
8474;SDS011;4274;52.012;8.448;2022-10-26T02:32:34;43.10;;;2.70;;
8474;SDS011;4274;52.012;8.448;2022-10-26T02:35:04;46.17;;;3.13;;
8474;SDS011;4274;52.012;8.448;2022-10-26T02:37:31;47.67;;;3.47;;
8474;SDS011;4274;52.012;8.448;2022-10-26T02:39:58;44.30;;;3.30;;
8474;SDS011;4274;52.012;8.448;2022-10-26T02:42:26;44.37;;;3.23;;
8474;SDS011;4274;52.012;8.448;2022-10-26T02:44:59;51.10;;;3.17;;
8474;SDS011;4274;52.012;8.448;2022-10-26T02:47:30;45.30;;;3.50;;
8474;SDS011;4274;52.012;8.448;2022-10-26T02:49:56;43.67;;;3.33;;
8474;SDS011;4274;52.012;8.448;2022-10-26T02:55:11;51.80;;;3.83;;
8474;SDS011;4274;52.012;8.448;2022-10-26T02:57:43;49.00;;;4.67;;
8474;SDS011;4274;52.012;8.448;2022-10-26T03:00:13;44.97;;;3.80;;
8474;SDS011;4274;52.012;8.448;2022-10-26T03:02:41;45.70;;;4.30;;
8474;SDS011;4274;52.012;8.448;2022-10-26T03:05:10;48.47;;;4.67;;
8474;SDS011;4274;52.012;8.448;2022-10-26T03:07:43;45.57;;;3.87;;
8474;SDS011;4274;52.012;8.448;2022-10-26T03:10:09;45.60;;;4.20;;
8474;SDS011;4274;52.012;8.448;2022-10-26T03:12:35;47.47;;;4.57;;
8474;SDS011;4274;52.012;8.448;2022-10-26T03:15:01;50.77;;;4.90;;
8474;SDS011;4274;52.012;8.448;2022-10-26T03:17:26;46.00;;;4.83;;
8474;SDS011;4274;52.012;8.448;2022-10-26T03:19:52;47.40;;;4.40;;
8474;SDS011;4274;52.012;8.448;2022-10-26T03:22:18;47.00;;;4.30;;
8474;SDS011;4274;52.012;8.448;2022-10-26T03:24:44;48.80;;;5.10;;
8474;SDS011;4274;52.012;8.448;2022-10-26T03:27:10;47.73;;;5.40;;
8474;SDS011;4274;52.012;8.448;2022-10-26T03:29:35;49.30;;;5.20;;
8474;SDS011;4274;52.012;8.448;2022-10-26T03:32:01;48.73;;;5.30;;
8474;SDS011;4274;52.012;8.448;2022-10-26T03:34:26;46.77;;;4.73;;
8474;SDS011;4274;52.012;8.448;2022-10-26T03:36:52;46.50;;;5.27;;
8474;SDS011;4274;52.012;8.448;2022-10-26T03:39:17;50.40;;;5.40;;
8474;SDS011;4274;52.012;8.448;2022-10-26T03:41:43;49.40;;;4.90;;
8474;SDS011;4274;52.012;8.448;2022-10-26T03:44:08;48.30;;;5.73;;
8474;SDS011;4274;52.012;8.448;2022-10-26T03:46:34;49.50;;;4.80;;
8474;SDS011;4274;52.012;8.448;2022-10-26T03:48:59;50.30;;;4.77;;
8474;SDS011;4274;52.012;8.448;2022-10-26T03:51:25;60.57;;;5.43;;
8474;SDS011;4274;52.012;8.448;2022-10-26T03:53:52;45.30;;;4.50;;
8474;SDS011;4274;52.012;8.448;2022-10-26T03:56:17;46.87;;;4.77;;
8474;SDS011;4274;52.012;8.448;2022-10-26T03:58:43;49.20;;;5.23;;
8474;SDS011;4274;52.012;8.448;2022-10-26T04:01:08;52.07;;;5.07;;
8474;SDS011;4274;52.012;8.448;2022-10-26T04:03:34;49.10;;;4.83;;
8474;SDS011;4274;52.012;8.448;2022-10-26T04:06:00;52.80;;;5.80;;
8474;SDS011;4274;52.012;8.448;2022-10-26T04:08:26;53.38;;;4.97;;
8474;SDS011;4274;52.012;8.448;2022-10-26T04:10:52;46.03;;;5.30;;
8474;SDS011;4274;52.012;8.448;2022-10-26T04:13:17;50.00;;;4.90;;
8474;SDS011;4274;52.012;8.448;2022-10-26T04:15:43;53.43;;;5.73;;
8474;SDS011;4274;52.012;8.448;2022-10-26T04:18:09;48.20;;;4.90;;
8474;SDS011;4274;52.012;8.448;2022-10-26T04:20:37;50.00;;;4.97;;
8474;SDS011;4274;52.012;8.448;2022-10-26T04:23:05;49.93;;;4.93;;
8474;SDS011;4274;52.012;8.448;2022-10-26T04:25:33;51.33;;;4.97;;
8474;SDS011;4274;52.012;8.448;2022-10-26T04:27:59;45.60;;;4.60;;
8474;SDS011;4274;52.012;8.448;2022-10-26T04:30:26;50.60;;;4.47;;
8474;SDS011;4274;52.012;8.448;2022-10-26T04:32:52;45.57;;;4.63;;
8474;SDS011;4274;52.012;8.448;2022-10-26T04:35:17;47.97;;;4.87;;
8474;SDS011;4274;52.012;8.448;2022-10-26T04:37:43;52.63;;;6.30;;
8474;SDS011;4274;52.012;8.448;2022-10-26T04:40:08;46.40;;;4.47;;
8474;SDS011;4274;52.012;8.448;2022-10-26T04:42:41;50.20;;;4.90;;
8474;SDS011;4274;52.012;8.448;2022-10-26T04:45:11;48.30;;;4.73;;
8474;SDS011;4274;52.012;8.448;2022-10-26T04:47:38;49.03;;;5.03;;
8474;SDS011;4274;52.012;8.448;2022-10-26T04:50:04;46.40;;;4.33;;
8474;SDS011;4274;52.012;8.448;2022-10-26T04:52:31;49.07;;;4.27;;
8474;SDS011;4274;52.012;8.448;2022-10-26T04:54:56;46.50;;;4.20;;
8474;SDS011;4274;52.012;8.448;2022-10-26T04:57:22;47.30;;;4.20;;
8474;SDS011;4274;52.012;8.448;2022-10-26T04:59:47;47.40;;;4.20;;
8474;SDS011;4274;52.012;8.448;2022-10-26T05:02:13;47.20;;;4.33;;
8474;SDS011;4274;52.012;8.448;2022-10-26T05:04:38;49.53;;;4.20;;
8474;SDS011;4274;52.012;8.448;2022-10-26T05:07:04;45.13;;;4.03;;
8474;SDS011;4274;52.012;8.448;2022-10-26T05:09:30;51.00;;;4.73;;
8474;SDS011;4274;52.012;8.448;2022-10-26T05:11:55;47.07;;;4.57;;
8474;SDS011;4274;52.012;8.448;2022-10-26T05:14:21;48.50;;;4.60;;
8474;SDS011;4274;52.012;8.448;2022-10-26T05:16:46;45.13;;;3.77;;
8474;SDS011;4274;52.012;8.448;2022-10-26T05:19:12;73.17;;;4.73;;
8474;SDS011;4274;52.012;8.448;2022-10-26T05:21:37;45.50;;;3.80;;
8474;SDS011;4274;52.012;8.448;2022-10-26T05:24:03;46.00;;;3.80;;
8474;SDS011;4274;52.012;8.448;2022-10-26T05:26:28;45.30;;;3.63;;
8474;SDS011;4274;52.012;8.448;2022-10-26T05:28:54;51.30;;;3.73;;
8474;SDS011;4274;52.012;8.448;2022-10-26T05:31:20;47.53;;;4.47;;
8474;SDS011;4274;52.012;8.448;2022-10-26T05:33:49;52.80;;;4.40;;
8474;SDS011;4274;52.012;8.448;2022-10-26T05:36:18;43.83;;;3.97;;
8474;SDS011;4274;52.012;8.448;2022-10-26T05:38:44;44.20;;;3.67;;
8474;SDS011;4274;52.012;8.448;2022-10-26T05:41:10;45.30;;;4.20;;
8474;SDS011;4274;52.012;8.448;2022-10-26T05:43:36;46.60;;;4.00;;
8474;SDS011;4274;52.012;8.448;2022-10-26T05:46:01;49.70;;;4.10;;
8474;SDS011;4274;52.012;8.448;2022-10-26T05:48:27;45.60;;;3.97;;
8474;SDS011;4274;52.012;8.448;2022-10-26T05:50:52;48.07;;;4.10;;
8474;SDS011;4274;52.012;8.448;2022-10-26T05:53:18;47.53;;;3.93;;
8474;SDS011;4274;52.012;8.448;2022-10-26T05:55:44;50.33;;;3.70;;
8474;SDS011;4274;52.012;8.448;2022-10-26T05:58:10;48.97;;;4.20;;
8474;SDS011;4274;52.012;8.448;2022-10-26T06:00:37;46.30;;;4.40;;
8474;SDS011;4274;52.012;8.448;2022-10-26T06:03:28;46.40;;;4.50;;
8474;SDS011;4274;52.012;8.448;2022-10-26T06:06:20;47.33;;;3.83;;
8474;SDS011;4274;52.012;8.448;2022-10-26T06:08:46;48.60;;;4.20;;
8474;SDS011;4274;52.012;8.448;2022-10-26T06:11:12;45.37;;;4.23;;
8474;SDS011;4274;52.012;8.448;2022-10-26T06:13:38;46.27;;;3.70;;
8474;SDS011;4274;52.012;8.448;2022-10-26T06:26:56;50.70;;;3.93;;
8474;SDS011;4274;52.012;8.448;2022-10-26T06:32:18;49.60;;;3.70;;
8474;SDS011;4274;52.012;8.448;2022-10-26T06:34:47;48.60;;;4.20;;
8474;SDS011;4274;52.012;8.448;2022-10-26T06:37:16;49.40;;;3.87;;
8474;SDS011;4274;52.012;8.448;2022-10-26T06:39:43;48.70;;;4.07;;
8474;SDS011;4274;52.012;8.448;2022-10-26T06:42:11;50.40;;;3.70;;
8474;SDS011;4274;52.012;8.448;2022-10-26T06:44:38;44.57;;;3.70;;
8474;SDS011;4274;52.012;8.448;2022-10-26T06:55:02;48.23;;;4.00;;
8474;SDS011;4274;52.012;8.448;2022-10-26T06:57:35;48.00;;;3.70;;
8474;SDS011;4274;52.012;8.448;2022-10-26T07:00:06;48.73;;;4.30;;
8474;SDS011;4274;52.012;8.448;2022-10-26T07:02:38;52.33;;;3.73;;
8474;SDS011;4274;52.012;8.448;2022-10-26T07:05:04;46.63;;;3.90;;
8474;SDS011;4274;52.012;8.448;2022-10-26T07:07:34;45.80;;;3.47;;
8474;SDS011;4274;52.012;8.448;2022-10-26T07:10:04;46.97;;;3.83;;
8474;SDS011;4274;52.012;8.448;2022-10-26T07:12:31;48.63;;;4.30;;
8474;SDS011;4274;52.012;8.448;2022-10-26T07:14:56;52.90;;;3.47;;
8474;SDS011;4274;52.012;8.448;2022-10-26T07:17:22;44.57;;;3.63;;
8474;SDS011;4274;52.012;8.448;2022-10-26T07:19:48;48.00;;;3.90;;
8474;SDS011;4274;52.012;8.448;2022-10-26T07:22:13;48.17;;;3.90;;
8474;SDS011;4274;52.012;8.448;2022-10-26T07:24:39;46.50;;;3.17;;
8474;SDS011;4274;52.012;8.448;2022-10-26T07:27:05;46.80;;;3.37;;
8474;SDS011;4274;52.012;8.448;2022-10-26T07:29:30;45.83;;;3.10;;
8474;SDS011;4274;52.012;8.448;2022-10-26T07:31:56;46.17;;;3.17;;
8474;SDS011;4274;52.012;8.448;2022-10-26T07:34:21;44.87;;;3.57;;
8474;SDS011;4274;52.012;8.448;2022-10-26T07:36:47;46.40;;;3.10;;
8474;SDS011;4274;52.012;8.448;2022-10-26T07:39:12;50.87;;;3.00;;
8474;SDS011;4274;52.012;8.448;2022-10-26T07:41:38;47.87;;;3.30;;
8474;SDS011;4274;52.012;8.448;2022-10-26T07:44:04;48.37;;;3.27;;
8474;SDS011;4274;52.012;8.448;2022-10-26T07:46:29;45.07;;;2.97;;
8474;SDS011;4274;52.012;8.448;2022-10-26T07:48:55;46.40;;;3.03;;
8474;SDS011;4274;52.012;8.448;2022-10-26T07:51:20;47.30;;;2.80;;
8474;SDS011;4274;52.012;8.448;2022-10-26T07:53:46;49.07;;;2.90;;
8474;SDS011;4274;52.012;8.448;2022-10-26T07:56:12;46.13;;;2.93;;
8474;SDS011;4274;52.012;8.448;2022-10-26T07:58:37;49.00;;;3.00;;
8474;SDS011;4274;52.012;8.448;2022-10-26T08:01:10;48.53;;;2.73;;
8474;SDS011;4274;52.012;8.448;2022-10-26T08:03:37;46.10;;;3.03;;
8474;SDS011;4274;52.012;8.448;2022-10-26T08:06:03;45.40;;;3.00;;
8474;SDS011;4274;52.012;8.448;2022-10-26T08:08:32;48.90;;;2.63;;
8474;SDS011;4274;52.012;8.448;2022-10-26T08:10:57;49.67;;;3.10;;
8474;SDS011;4274;52.012;8.448;2022-10-26T08:13:24;46.90;;;2.63;;
8474;SDS011;4274;52.012;8.448;2022-10-26T08:15:54;45.90;;;3.23;;
8474;SDS011;4274;52.012;8.448;2022-10-26T08:18:23;52.70;;;2.80;;
8474;SDS011;4274;52.012;8.448;2022-10-26T08:20:49;49.23;;;3.10;;
8474;SDS011;4274;52.012;8.448;2022-10-26T08:23:15;47.70;;;2.73;;
8474;SDS011;4274;52.012;8.448;2022-10-26T08:25:40;48.60;;;3.60;;
8474;SDS011;4274;52.012;8.448;2022-10-26T08:28:06;47.23;;;2.87;;
8474;SDS011;4274;52.012;8.448;2022-10-26T08:30:31;52.53;;;3.60;;
8474;SDS011;4274;52.012;8.448;2022-10-26T08:33:04;48.87;;;2.90;;
8474;SDS011;4274;52.012;8.448;2022-10-26T08:35:31;49.17;;;2.47;;
8474;SDS011;4274;52.012;8.448;2022-10-26T08:37:57;46.53;;;2.90;;
8474;SDS011;4274;52.012;8.448;2022-10-26T08:40:27;46.00;;;2.80;;
8474;SDS011;4274;52.012;8.448;2022-10-26T08:45:59;48.27;;;2.83;;
8474;SDS011;4274;52.012;8.448;2022-10-26T08:48:39;45.07;;;2.97;;
8474;SDS011;4274;52.012;8.448;2022-10-26T08:51:17;51.67;;;2.70;;
8474;SDS011;4274;52.012;8.448;2022-10-26T08:53:48;47.70;;;2.77;;
8474;SDS011;4274;52.012;8.448;2022-10-26T08:56:22;55.43;;;2.93;;
8474;SDS011;4274;52.012;8.448;2022-10-26T08:58:52;55.97;;;3.40;;
8474;SDS011;4274;52.012;8.448;2022-10-26T09:01:20;46.70;;;2.80;;
8474;SDS011;4274;52.012;8.448;2022-10-26T09:03:47;50.07;;;2.90;;
8474;SDS011;4274;52.012;8.448;2022-10-26T09:08:59;45.47;;;2.80;;
8474;SDS011;4274;52.012;8.448;2022-10-26T09:14:18;44.47;;;2.70;;
8474;SDS011;4274;52.012;8.448;2022-10-26T09:17:09;44.20;;;2.23;;
8474;SDS011;4274;52.012;8.448;2022-10-26T09:22:34;47.30;;;3.10;;
8474;SDS011;4274;52.012;8.448;2022-10-26T09:25:17;47.97;;;2.60;;
8474;SDS011;4274;52.012;8.448;2022-10-26T09:27:49;45.97;;;2.80;;
8474;SDS011;4274;52.012;8.448;2022-10-26T09:30:19;46.80;;;2.50;;
8474;SDS011;4274;52.012;8.448;2022-10-26T09:32:56;47.77;;;2.87;;
8474;SDS011;4274;52.012;8.448;2022-10-26T09:35:25;46.00;;;2.30;;
8474;SDS011;4274;52.012;8.448;2022-10-26T09:38:24;45.83;;;2.60;;
8474;SDS011;4274;52.012;8.448;2022-10-26T09:41:20;45.80;;;2.27;;
8474;SDS011;4274;52.012;8.448;2022-10-26T09:46:39;46.77;;;2.50;;
8474;SDS011;4274;52.012;8.448;2022-10-26T09:49:40;44.77;;;2.30;;
8474;SDS011;4274;52.012;8.448;2022-10-26T09:52:12;47.17;;;2.23;;
8474;SDS011;4274;52.012;8.448;2022-10-26T09:54:39;49.33;;;2.50;;
8474;SDS011;4274;52.012;8.448;2022-10-26T09:57:04;46.93;;;2.40;;
8474;SDS011;4274;52.012;8.448;2022-10-26T09:59:32;47.27;;;2.70;;
8474;SDS011;4274;52.012;8.448;2022-10-26T10:02:06;48.97;;;2.80;;
8474;SDS011;4274;52.012;8.448;2022-10-26T10:05:19;47.00;;;2.80;;
8474;SDS011;4274;52.012;8.448;2022-10-26T10:07:45;50.43;;;3.10;;
8474;SDS011;4274;52.012;8.448;2022-10-26T10:10:14;46.93;;;2.67;;
8474;SDS011;4274;52.012;8.448;2022-10-26T10:12:40;46.93;;;2.50;;
8474;SDS011;4274;52.012;8.448;2022-10-26T10:15:15;45.10;;;2.40;;
8474;SDS011;4274;52.012;8.448;2022-10-26T10:17:50;48.10;;;2.20;;
8474;SDS011;4274;52.012;8.448;2022-10-26T10:20:21;45.37;;;2.10;;
8474;SDS011;4274;52.012;8.448;2022-10-26T10:22:55;45.10;;;2.20;;
8474;SDS011;4274;52.012;8.448;2022-10-26T10:25:31;46.57;;;2.30;;
8474;SDS011;4274;52.012;8.448;2022-10-26T10:27:57;51.63;;;2.40;;
8474;SDS011;4274;52.012;8.448;2022-10-26T10:30:27;47.90;;;2.40;;
8474;SDS011;4274;52.012;8.448;2022-10-26T10:33:05;49.70;;;2.20;;
8474;SDS011;4274;52.012;8.448;2022-10-26T10:35:34;46.93;;;2.20;;
8474;SDS011;4274;52.012;8.448;2022-10-26T10:38:00;44.80;;;2.20;;
8474;SDS011;4274;52.012;8.448;2022-10-26T10:40:27;46.37;;;2.00;;
8474;SDS011;4274;52.012;8.448;2022-10-26T10:43:11;45.20;;;1.93;;
8474;SDS011;4274;52.012;8.448;2022-10-26T10:45:38;50.87;;;2.30;;
8474;SDS011;4274;52.012;8.448;2022-10-26T10:50:36;46.67;;;2.63;;
8474;SDS011;4274;52.012;8.448;2022-10-26T10:53:23;51.43;;;2.53;;
8474;SDS011;4274;52.012;8.448;2022-10-26T11:01:53;53.70;;;2.40;;
8474;SDS011;4274;52.012;8.448;2022-10-26T11:07:34;48.63;;;2.13;;
8474;SDS011;4274;52.012;8.448;2022-10-26T11:10:08;47.57;;;2.20;;
8474;SDS011;4274;52.012;8.448;2022-10-26T11:12:41;49.23;;;2.17;;
8474;SDS011;4274;52.012;8.448;2022-10-26T11:15:16;52.43;;;2.13;;
8474;SDS011;4274;52.012;8.448;2022-10-26T11:20:14;49.43;;;2.10;;
8474;SDS011;4274;52.012;8.448;2022-10-26T11:22:55;48.53;;;1.80;;
8474;SDS011;4274;52.012;8.448;2022-10-26T11:25:26;48.53;;;2.00;;
8474;SDS011;4274;52.012;8.448;2022-10-26T11:27:55;52.00;;;2.10;;
8474;SDS011;4274;52.012;8.448;2022-10-26T11:30:26;53.47;;;2.23;;
8474;SDS011;4274;52.012;8.448;2022-10-26T11:33:08;47.97;;;2.00;;
8474;SDS011;4274;52.012;8.448;2022-10-26T11:36:03;51.50;;;2.53;;
8474;SDS011;4274;52.012;8.448;2022-10-26T11:38:33;47.70;;;2.20;;
8474;SDS011;4274;52.012;8.448;2022-10-26T11:41:39;48.90;;;1.90;;
8474;SDS011;4274;52.012;8.448;2022-10-26T11:47:03;52.70;;;2.43;;
8474;SDS011;4274;52.012;8.448;2022-10-26T11:52:48;50.60;;;2.20;;
8474;SDS011;4274;52.012;8.448;2022-10-26T11:55:18;49.27;;;2.40;;
8474;SDS011;4274;52.012;8.448;2022-10-26T11:57:46;50.47;;;2.30;;
8474;SDS011;4274;52.012;8.448;2022-10-26T12:00:15;50.80;;;2.60;;
8474;SDS011;4274;52.012;8.448;2022-10-26T12:02:45;48.03;;;1.93;;
8474;SDS011;4274;52.012;8.448;2022-10-26T12:07:39;50.43;;;3.03;;
8474;SDS011;4274;52.012;8.448;2022-10-26T12:10:31;50.57;;;2.30;;
8474;SDS011;4274;52.012;8.448;2022-10-26T12:18:44;50.47;;;2.70;;
8474;SDS011;4274;52.012;8.448;2022-10-26T12:21:16;49.80;;;2.47;;
8474;SDS011;4274;52.012;8.448;2022-10-26T12:34:02;50.47;;;2.83;;
8474;SDS011;4274;52.012;8.448;2022-10-26T12:44:33;48.73;;;2.50;;
8474;SDS011;4274;52.012;8.448;2022-10-26T12:55:17;50.67;;;2.50;;
8474;SDS011;4274;52.012;8.448;2022-10-26T13:00:33;49.77;;;2.73;;
8474;SDS011;4274;52.012;8.448;2022-10-26T13:08:14;49.30;;;2.33;;
8474;SDS011;4274;52.012;8.448;2022-10-26T13:10:44;51.40;;;3.00;;
8474;SDS011;4274;52.012;8.448;2022-10-26T13:13:27;58.30;;;2.73;;
8474;SDS011;4274;52.012;8.448;2022-10-26T13:15:55;48.27;;;2.20;;
8474;SDS011;4274;52.012;8.448;2022-10-26T13:18:21;48.70;;;2.40;;
8474;SDS011;4274;52.012;8.448;2022-10-26T13:21:07;50.90;;;2.47;;
8474;SDS011;4274;52.012;8.448;2022-10-26T13:23:39;62.10;;;2.70;;
8474;SDS011;4274;52.012;8.448;2022-10-26T13:26:21;51.07;;;2.80;;
8474;SDS011;4274;52.012;8.448;2022-10-26T13:34:14;52.20;;;3.00;;
8474;SDS011;4274;52.012;8.448;2022-10-26T13:39:44;54.33;;;4.17;;
8474;SDS011;4274;52.012;8.448;2022-10-26T13:42:13;52.73;;;3.07;;
8474;SDS011;4274;52.012;8.448;2022-10-26T13:47:27;50.30;;;3.20;;
8474;SDS011;4274;52.012;8.448;2022-10-26T13:50:13;52.93;;;3.47;;
8474;SDS011;4274;52.012;8.448;2022-10-26T13:52:44;56.57;;;3.30;;
8474;SDS011;4274;52.012;8.448;2022-10-26T13:55:27;54.83;;;2.83;;
8474;SDS011;4274;52.012;8.448;2022-10-26T14:03:33;62.17;;;3.33;;
8474;SDS011;4274;52.012;8.448;2022-10-26T14:05:58;59.33;;;3.67;;
8474;SDS011;4274;52.012;8.448;2022-10-26T14:08:27;48.97;;;3.03;;
8474;SDS011;4274;52.012;8.448;2022-10-26T14:10:56;55.20;;;3.00;;
8474;SDS011;4274;52.012;8.448;2022-10-26T14:13:24;52.80;;;3.50;;
8474;SDS011;4274;52.012;8.448;2022-10-26T14:15:55;51.27;;;3.93;;
8474;SDS011;4274;52.012;8.448;2022-10-26T14:21:00;56.67;;;4.67;;
8474;SDS011;4274;52.012;8.448;2022-10-26T14:23:34;48.60;;;3.20;;
8474;SDS011;4274;52.012;8.448;2022-10-26T14:26:16;49.10;;;3.30;;
8474;SDS011;4274;52.012;8.448;2022-10-26T14:28:50;51.97;;;3.20;;
8474;SDS011;4274;52.012;8.448;2022-10-26T14:33:49;53.37;;;3.50;;
8474;SDS011;4274;52.012;8.448;2022-10-26T14:36:15;51.20;;;3.40;;
8474;SDS011;4274;52.012;8.448;2022-10-26T14:38:44;51.40;;;2.90;;
8474;SDS011;4274;52.012;8.448;2022-10-26T14:41:12;47.63;;;3.00;;
8474;SDS011;4274;52.012;8.448;2022-10-26T14:43:40;49.13;;;3.17;;
8474;SDS011;4274;52.012;8.448;2022-10-26T14:46:11;53.87;;;3.40;;
8474;SDS011;4274;52.012;8.448;2022-10-26T14:48:40;49.90;;;2.90;;
8474;SDS011;4274;52.012;8.448;2022-10-26T14:51:18;54.83;;;3.53;;
8474;SDS011;4274;52.012;8.448;2022-10-26T14:53:52;50.93;;;3.10;;
8474;SDS011;4274;52.012;8.448;2022-10-26T14:58:56;53.30;;;2.97;;
8474;SDS011;4274;52.012;8.448;2022-10-26T15:01:27;60.57;;;4.20;;
8474;SDS011;4274;52.012;8.448;2022-10-26T15:04:01;51.17;;;3.37;;
8474;SDS011;4274;52.012;8.448;2022-10-26T15:09:00;59.97;;;3.50;;
8474;SDS011;4274;52.012;8.448;2022-10-26T15:11:29;51.80;;;3.37;;
8474;SDS011;4274;52.012;8.448;2022-10-26T15:13:56;50.33;;;3.27;;
8474;SDS011;4274;52.012;8.448;2022-10-26T15:16:23;52.30;;;2.80;;
8474;SDS011;4274;52.012;8.448;2022-10-26T15:18:53;53.93;;;3.50;;
8474;SDS011;4274;52.012;8.448;2022-10-26T15:23:55;54.07;;;3.10;;
8474;SDS011;4274;52.012;8.448;2022-10-26T15:26:21;50.30;;;3.10;;
8474;SDS011;4274;52.012;8.448;2022-10-26T15:28:47;49.50;;;3.33;;
8474;SDS011;4274;52.012;8.448;2022-10-26T15:33:40;49.30;;;3.57;;
8474;SDS011;4274;52.012;8.448;2022-10-26T15:38:37;50.30;;;3.20;;
8474;SDS011;4274;52.012;8.448;2022-10-26T15:41:03;49.50;;;2.73;;
8474;SDS011;4274;52.012;8.448;2022-10-26T15:43:37;47.60;;;2.90;;
8474;SDS011;4274;52.012;8.448;2022-10-26T15:46:02;50.80;;;3.50;;
8474;SDS011;4274;52.012;8.448;2022-10-26T15:48:29;56.63;;;3.10;;
8474;SDS011;4274;52.012;8.448;2022-10-26T15:50:56;52.40;;;3.83;;
8474;SDS011;4274;52.012;8.448;2022-10-26T15:53:22;53.70;;;3.90;;
8474;SDS011;4274;52.012;8.448;2022-10-26T15:55:52;52.17;;;3.10;;
8474;SDS011;4274;52.012;8.448;2022-10-26T15:58:20;55.00;;;3.33;;
8474;SDS011;4274;52.012;8.448;2022-10-26T16:00:46;57.00;;;4.60;;
8474;SDS011;4274;52.012;8.448;2022-10-26T16:03:14;51.73;;;3.50;;
8474;SDS011;4274;52.012;8.448;2022-10-26T16:05:42;51.03;;;3.20;;
8474;SDS011;4274;52.012;8.448;2022-10-26T16:08:10;48.90;;;3.07;;
8474;SDS011;4274;52.012;8.448;2022-10-26T16:10:37;48.87;;;3.20;;
8474;SDS011;4274;52.012;8.448;2022-10-26T16:13:03;48.57;;;4.80;;
8474;SDS011;4274;52.012;8.448;2022-10-26T16:15:30;52.90;;;5.27;;
8474;SDS011;4274;52.012;8.448;2022-10-26T16:17:55;56.10;;;3.70;;
8474;SDS011;4274;52.012;8.448;2022-10-26T16:20:22;54.20;;;4.57;;
8474;SDS011;4274;52.012;8.448;2022-10-26T16:22:49;51.87;;;4.40;;
8474;SDS011;4274;52.012;8.448;2022-10-26T16:25:17;49.13;;;4.40;;
8474;SDS011;4274;52.012;8.448;2022-10-26T16:27:44;54.77;;;6.00;;
8474;SDS011;4274;52.012;8.448;2022-10-26T16:30:11;51.70;;;3.90;;
8474;SDS011;4274;52.012;8.448;2022-10-26T16:32:38;53.53;;;6.13;;
8474;SDS011;4274;52.012;8.448;2022-10-26T16:35:04;58.73;;;7.07;;
8474;SDS011;4274;52.012;8.448;2022-10-26T16:37:30;53.83;;;5.07;;
8474;SDS011;4274;52.012;8.448;2022-10-26T16:39:56;48.30;;;3.90;;
8474;SDS011;4274;52.012;8.448;2022-10-26T16:42:22;52.87;;;4.10;;
8474;SDS011;4274;52.012;8.448;2022-10-26T16:44:48;49.27;;;4.47;;
8474;SDS011;4274;52.012;8.448;2022-10-26T16:47:14;52.83;;;3.80;;
8474;SDS011;4274;52.012;8.448;2022-10-26T16:49:39;51.43;;;4.33;;
8474;SDS011;4274;52.012;8.448;2022-10-26T16:52:07;51.93;;;5.63;;
8474;SDS011;4274;52.012;8.448;2022-10-26T16:54:33;56.80;;;7.00;;
8474;SDS011;4274;52.012;8.448;2022-10-26T16:56:59;51.90;;;6.30;;
8474;SDS011;4274;52.012;8.448;2022-10-26T16:59:25;53.53;;;4.60;;
8474;SDS011;4274;52.012;8.448;2022-10-26T17:01:50;49.93;;;4.97;;
8474;SDS011;4274;52.012;8.448;2022-10-26T17:04:16;51.03;;;4.30;;
8474;SDS011;4274;52.012;8.448;2022-10-26T17:06:41;54.27;;;8.03;;
8474;SDS011;4274;52.012;8.448;2022-10-26T17:09:07;65.30;;;14.63;;
8474;SDS011;4274;52.012;8.448;2022-10-26T17:11:32;57.40;;;11.67;;
8474;SDS011;4274;52.012;8.448;2022-10-26T17:13:58;54.90;;;10.67;;
8474;SDS011;4274;52.012;8.448;2022-10-26T17:16:24;55.03;;;7.07;;
8474;SDS011;4274;52.012;8.448;2022-10-26T17:18:50;53.80;;;5.47;;
8474;SDS011;4274;52.012;8.448;2022-10-26T17:21:17;53.70;;;4.67;;
8474;SDS011;4274;52.012;8.448;2022-10-26T17:23:45;49.47;;;4.53;;
8474;SDS011;4274;52.012;8.448;2022-10-26T17:26:11;47.90;;;3.83;;
8474;SDS011;4274;52.012;8.448;2022-10-26T17:28:38;51.97;;;5.80;;
8474;SDS011;4274;52.012;8.448;2022-10-26T17:33:36;57.80;;;4.60;;
8474;SDS011;4274;52.012;8.448;2022-10-26T17:36:04;52.97;;;5.10;;
8474;SDS011;4274;52.012;8.448;2022-10-26T17:38:32;48.47;;;4.47;;
8474;SDS011;4274;52.012;8.448;2022-10-26T17:40:59;50.00;;;4.40;;
8474;SDS011;4274;52.012;8.448;2022-10-26T17:43:28;49.47;;;4.93;;
8474;SDS011;4274;52.012;8.448;2022-10-26T17:45:58;60.60;;;4.80;;
8474;SDS011;4274;52.012;8.448;2022-10-26T17:48:24;50.30;;;4.13;;
8474;SDS011;4274;52.012;8.448;2022-10-26T17:50:51;53.50;;;4.47;;
8474;SDS011;4274;52.012;8.448;2022-10-26T17:53:17;50.67;;;4.50;;
8474;SDS011;4274;52.012;8.448;2022-10-26T17:55:42;48.27;;;4.83;;
8474;SDS011;4274;52.012;8.448;2022-10-26T17:58:08;49.37;;;4.30;;
8474;SDS011;4274;52.012;8.448;2022-10-26T18:00:33;47.37;;;4.13;;